sensor_id;sensor_type;location;lat;lon;timestamp;pressure;altitude;pressure_sealevel;temperature;humidity
41467;BME280;27205;53.690;19.948;2022-07-31T00:01:42;99921.37;;;16.81;65.43
41467;BME280;27205;53.690;19.948;2022-07-31T00:06:45;99917.92;;;16.71;66.58
41467;BME280;27205;53.690;19.948;2022-07-31T00:11:49;99911.41;;;16.60;66.63
41467;BME280;27205;53.690;19.948;2022-07-31T00:16:52;99908.95;;;16.49;67.13
41467;BME280;27205;53.690;19.948;2022-07-31T00:21:55;99904.60;;;16.36;68.01
41467;BME280;27205;53.690;19.948;2022-07-31T00:27:00;99903.89;;;16.27;68.05
41467;BME280;27205;53.690;19.948;2022-07-31T00:32:04;99902.66;;;16.19;68.75
41467;BME280;27205;53.690;19.948;2022-07-31T00:37:08;99901.34;;;16.12;70.34
41467;BME280;27205;53.690;19.948;2022-07-31T00:42:16;99899.91;;;16.03;70.23
41467;BME280;27205;53.690;19.948;2022-07-31T00:47:20;99898.85;;;15.97;71.10
41467;BME280;27205;53.690;19.948;2022-07-31T00:52:27;99899.66;;;15.89;71.44
41467;BME280;27205;53.690;19.948;2022-07-31T00:57:30;99899.98;;;15.78;72.58
41467;BME280;27205;53.690;19.948;2022-07-31T01:02:33;99896.96;;;15.67;73.19
41467;BME280;27205;53.690;19.948;2022-07-31T01:07:37;99893.52;;;15.57;74.06
41467;BME280;27205;53.690;19.948;2022-07-31T01:12:47;99892.66;;;15.49;73.35
41467;BME280;27205;53.690;19.948;2022-07-31T01:17:57;99887.70;;;15.42;75.01
41467;BME280;27205;53.690;19.948;2022-07-31T01:33:48;99873.62;;;15.11;78.18
41467;BME280;27205;53.690;19.948;2022-07-31T01:38:55;99872.25;;;15.03;77.92
41467;BME280;27205;53.690;19.948;2022-07-31T01:44:02;99869.96;;;14.97;78.50
41467;BME280;27205;53.690;19.948;2022-07-31T01:49:08;99866.63;;;14.93;79.53
41467;BME280;27205;53.690;19.948;2022-07-31T01:54:14;99865.55;;;14.87;80.25
41467;BME280;27205;53.690;19.948;2022-07-31T01:59:20;99857.52;;;14.81;81.09
41467;BME280;27205;53.690;19.948;2022-07-31T02:04:27;99849.95;;;14.75;82.04
41467;BME280;27205;53.690;19.948;2022-07-31T02:09:32;99844.43;;;14.69;81.49
41467;BME280;27205;53.690;19.948;2022-07-31T02:14:40;99836.24;;;14.61;84.22
41467;BME280;27205;53.690;19.948;2022-07-31T02:19:44;99826.45;;;14.56;83.25
41467;BME280;27205;53.690;19.948;2022-07-31T02:25:03;99814.65;;;14.53;83.14
41467;BME280;27205;53.690;19.948;2022-07-31T02:30:07;99808.55;;;14.50;84.47
41467;BME280;27205;53.690;19.948;2022-07-31T02:35:12;99800.73;;;14.47;84.57
41467;BME280;27205;53.690;19.948;2022-07-31T02:40:18;99791.64;;;14.43;85.15
41467;BME280;27205;53.690;19.948;2022-07-31T02:45:22;99787.80;;;14.38;85.12
41467;BME280;27205;53.690;19.948;2022-07-31T02:50:26;99782.16;;;14.38;84.81
41467;BME280;27205;53.690;19.948;2022-07-31T02:55:30;99777.06;;;14.34;84.10
41467;BME280;27205;53.690;19.948;2022-07-31T03:00:33;99772.52;;;14.29;84.61
41467;BME280;27205;53.690;19.948;2022-07-31T03:05:37;99764.24;;;14.28;83.83
41467;BME280;27205;53.690;19.948;2022-07-31T03:10:41;99757.55;;;14.25;85.67
41467;BME280;27205;53.690;19.948;2022-07-31T03:15:45;99756.57;;;14.22;87.13
41467;BME280;27205;53.690;19.948;2022-07-31T03:20:53;99753.63;;;14.16;87.39
41467;BME280;27205;53.690;19.948;2022-07-31T03:25:58;99747.64;;;14.11;87.45
41467;BME280;27205;53.690;19.948;2022-07-31T03:31:02;99745.36;;;14.07;87.94
41467;BME280;27205;53.690;19.948;2022-07-31T03:36:06;99749.57;;;14.02;91.00
41467;BME280;27205;53.690;19.948;2022-07-31T03:41:11;99746.83;;;13.98;90.61
41467;BME280;27205;53.690;19.948;2022-07-31T03:46:17;99749.85;;;13.97;90.32
41467;BME280;27205;53.690;19.948;2022-07-31T03:51:22;99748.05;;;13.98;90.53
41467;BME280;27205;53.690;19.948;2022-07-31T03:56:26;99745.87;;;13.98;90.35
41467;BME280;27205;53.690;19.948;2022-07-31T04:01:31;99745.54;;;14.02;89.85
41467;BME280;27205;53.690;19.948;2022-07-31T04:06:56;99740.77;;;14.06;91.61
41467;BME280;27205;53.690;19.948;2022-07-31T04:12:00;99737.04;;;14.06;92.59
41467;BME280;27205;53.690;19.948;2022-07-31T04:17:04;99738.00;;;14.05;92.81
41467;BME280;27205;53.690;19.948;2022-07-31T04:22:07;99743.19;;;14.06;91.93
41467;BME280;27205;53.690;19.948;2022-07-31T04:27:11;99743.77;;;14.09;91.34
41467;BME280;27205;53.690;19.948;2022-07-31T04:32:17;99742.45;;;14.13;92.88
41467;BME280;27205;53.690;19.948;2022-07-31T04:37:21;99743.46;;;14.10;93.65
41467;BME280;27205;53.690;19.948;2022-07-31T04:42:24;99747.28;;;14.09;93.80
41467;BME280;27205;53.690;19.948;2022-07-31T04:47:28;99745.85;;;14.04;94.70
41467;BME280;27205;53.690;19.948;2022-07-31T04:52:31;99740.96;;;14.05;95.00
41467;BME280;27205;53.690;19.948;2022-07-31T04:57:34;99735.04;;;14.07;94.84
41467;BME280;27205;53.690;19.948;2022-07-31T05:02:38;99734.80;;;14.10;95.89
41467;BME280;27205;53.690;19.948;2022-07-31T05:07:43;99727.58;;;14.14;96.26
41467;BME280;27205;53.690;19.948;2022-07-31T05:12:47;99722.82;;;14.18;95.70
41467;BME280;27205;53.690;19.948;2022-07-31T05:17:50;99718.36;;;14.23;95.89
41467;BME280;27205;53.690;19.948;2022-07-31T05:22:54;99715.18;;;14.28;95.88
41467;BME280;27205;53.690;19.948;2022-07-31T05:27:57;99724.05;;;14.30;95.94
41467;BME280;27205;53.690;19.948;2022-07-31T05:33:01;99719.83;;;14.31;96.19
41467;BME280;27205;53.690;19.948;2022-07-31T05:38:04;99718.91;;;14.32;96.19
41467;BME280;27205;53.690;19.948;2022-07-31T05:43:13;99719.29;;;14.38;96.57
41467;BME280;27205;53.690;19.948;2022-07-31T05:48:17;99720.55;;;14.41;96.65
41467;BME280;27205;53.690;19.948;2022-07-31T05:53:21;99723.43;;;14.41;97.21
41467;BME280;27205;53.690;19.948;2022-07-31T05:58:24;99724.40;;;14.45;97.08
41467;BME280;27205;53.690;19.948;2022-07-31T06:03:28;99724.02;;;14.52;97.00
41467;BME280;27205;53.690;19.948;2022-07-31T06:08:31;99729.20;;;14.62;96.78
41467;BME280;27205;53.690;19.948;2022-07-31T06:13:35;99734.52;;;14.72;96.71
41467;BME280;27205;53.690;19.948;2022-07-31T06:18:40;99730.79;;;14.77;96.68
41467;BME280;27205;53.690;19.948;2022-07-31T06:23:43;99728.41;;;14.82;97.31
41467;BME280;27205;53.690;19.948;2022-07-31T06:28:47;99722.07;;;14.89;97.53
41467;BME280;27205;53.690;19.948;2022-07-31T06:33:51;99718.85;;;14.95;97.60
41467;BME280;27205;53.690;19.948;2022-07-31T06:38:54;99710.26;;;15.07;96.64
41467;BME280;27205;53.690;19.948;2022-07-31T06:43:58;99705.46;;;15.20;96.67
41467;BME280;27205;53.690;19.948;2022-07-31T06:49:02;99704.92;;;15.33;96.02
41467;BME280;27205;53.690;19.948;2022-07-31T06:54:10;99704.35;;;15.39;96.39
41467;BME280;27205;53.690;19.948;2022-07-31T06:59:14;99700.29;;;15.46;95.93
41467;BME280;27205;53.690;19.948;2022-07-31T07:04:37;99699.64;;;15.47;96.06
41467;BME280;27205;53.690;19.948;2022-07-31T07:10:00;99691.62;;;15.49;96.15
41467;BME280;27205;53.690;19.948;2022-07-31T07:15:05;99689.41;;;15.41;96.61
41467;BME280;27205;53.690;19.948;2022-07-31T07:20:09;99689.77;;;15.35;97.11
41467;BME280;27205;53.690;19.948;2022-07-31T07:25:12;99700.56;;;15.40;96.87
41467;BME280;27205;53.690;19.948;2022-07-31T07:30:15;99699.49;;;15.61;96.45
41467;BME280;27205;53.690;19.948;2022-07-31T07:35:19;99701.14;;;15.80;95.79
41467;BME280;27205;53.690;19.948;2022-07-31T07:40:24;99703.69;;;15.88;95.58
41467;BME280;27205;53.690;19.948;2022-07-31T07:45:28;99705.75;;;16.01;95.05
41467;BME280;27205;53.690;19.948;2022-07-31T07:50:33;99706.75;;;15.92;94.84
41467;BME280;27205;53.690;19.948;2022-07-31T07:55:42;99700.64;;;15.78;94.97
41467;BME280;27205;53.690;19.948;2022-07-31T08:00:48;99707.80;;;15.54;95.69
41467;BME280;27205;53.690;19.948;2022-07-31T08:05:55;99700.22;;;15.35;96.34
41467;BME280;27205;53.690;19.948;2022-07-31T08:10:59;99695.98;;;15.26;96.90
41467;BME280;27205;53.690;19.948;2022-07-31T08:16:04;99694.77;;;15.34;97.50
41467;BME280;27205;53.690;19.948;2022-07-31T08:21:08;99689.73;;;15.47;97.25
41467;BME280;27205;53.690;19.948;2022-07-31T08:26:12;99689.77;;;15.68;97.08
41467;BME280;27205;53.690;19.948;2022-07-31T08:31:16;99684.75;;;15.65;97.24
41467;BME280;27205;53.690;19.948;2022-07-31T08:36:19;99693.20;;;15.56;97.60
41467;BME280;27205;53.690;19.948;2022-07-31T08:41:25;99696.98;;;15.57;97.72
41467;BME280;27205;53.690;19.948;2022-07-31T08:46:39;99697.96;;;15.50;98.18
41467;BME280;27205;53.690;19.948;2022-07-31T08:51:43;99706.27;;;15.39;98.66
41467;BME280;27205;53.690;19.948;2022-07-31T08:56:55;99702.61;;;15.28;99.18
41467;BME280;27205;53.690;19.948;2022-07-31T09:01:58;99698.61;;;15.28;99.80
41467;BME280;27205;53.690;19.948;2022-07-31T09:07:02;99702.08;;;15.37;99.67
41467;BME280;27205;53.690;19.948;2022-07-31T09:12:06;99701.66;;;15.42;99.37
41467;BME280;27205;53.690;19.948;2022-07-31T09:17:10;99699.94;;;15.48;99.59
41467;BME280;27205;53.690;19.948;2022-07-31T09:22:26;99694.66;;;15.56;99.50
41467;BME280;27205;53.690;19.948;2022-07-31T09:27:30;99697.06;;;15.65;98.96
41467;BME280;27205;53.690;19.948;2022-07-31T09:32:33;99702.38;;;15.64;99.14
41467;BME280;27205;53.690;19.948;2022-07-31T09:37:37;99704.83;;;15.50;99.84
41467;BME280;27205;53.690;19.948;2022-07-31T09:42:42;99703.75;;;15.30;100.00
41467;BME280;27205;53.690;19.948;2022-07-31T09:48:07;99703.50;;;15.18;100.00
41467;BME280;27205;53.690;19.948;2022-07-31T09:53:21;99696.77;;;15.24;100.00
41467;BME280;27205;53.690;19.948;2022-07-31T09:58:24;99700.77;;;15.38;100.00
41467;BME280;27205;53.690;19.948;2022-07-31T10:03:28;99697.64;;;15.58;100.00
41467;BME280;27205;53.690;19.948;2022-07-31T10:08:34;99692.64;;;15.71;100.00
41467;BME280;27205;53.690;19.948;2022-07-31T10:13:43;99698.86;;;15.79;100.00
41467;BME280;27205;53.690;19.948;2022-07-31T10:18:55;99695.98;;;15.71;100.00
41467;BME280;27205;53.690;19.948;2022-07-31T10:24:03;99691.76;;;15.90;100.00
41467;BME280;27205;53.690;19.948;2022-07-31T10:29:07;99688.71;;;16.04;100.00
41467;BME280;27205;53.690;19.948;2022-07-31T10:34:14;99688.42;;;16.11;100.00
41467;BME280;27205;53.690;19.948;2022-07-31T10:39:38;99692.30;;;16.13;100.00
41467;BME280;27205;53.690;19.948;2022-07-31T10:44:56;99695.71;;;15.99;100.00
41467;BME280;27205;53.690;19.948;2022-07-31T10:50:06;99697.23;;;15.95;100.00
41467;BME280;27205;53.690;19.948;2022-07-31T10:55:17;99696.79;;;15.83;100.00
41467;BME280;27205;53.690;19.948;2022-07-31T11:00:25;99700.83;;;15.85;100.00
41467;BME280;27205;53.690;19.948;2022-07-31T11:05:31;99701.87;;;15.86;100.00
41467;BME280;27205;53.690;19.948;2022-07-31T11:10:56;99705.34;;;15.81;100.00
41467;BME280;27205;53.690;19.948;2022-07-31T11:16:04;99704.72;;;15.83;100.00
41467;BME280;27205;53.690;19.948;2022-07-31T11:21:09;99698.85;;;15.84;100.00
41467;BME280;27205;53.690;19.948;2022-07-31T11:26:32;99695.92;;;15.89;100.00
41467;BME280;27205;53.690;19.948;2022-07-31T11:31:44;99698.09;;;15.99;100.00
41467;BME280;27205;53.690;19.948;2022-07-31T11:36:47;99695.95;;;16.19;100.00
41467;BME280;27205;53.690;19.948;2022-07-31T11:41:53;99698.40;;;16.24;99.92
41467;BME280;27205;53.690;19.948;2022-07-31T11:46:56;99703.86;;;16.26;99.98
41467;BME280;27205;53.690;19.948;2022-07-31T11:52:04;99705.56;;;16.19;99.77
41467;BME280;27205;53.690;19.948;2022-07-31T11:57:07;99707.70;;;16.16;98.96
41467;BME280;27205;53.690;19.948;2022-07-31T12:02:12;99710.59;;;16.16;97.92
41467;BME280;27205;53.690;19.948;2022-07-31T12:07:15;99707.36;;;16.02;98.38
41467;BME280;27205;53.690;19.948;2022-07-31T12:12:19;99706.09;;;15.92;98.81
41467;BME280;27205;53.690;19.948;2022-07-31T12:17:22;99703.91;;;15.95;98.93
41467;BME280;27205;53.690;19.948;2022-07-31T12:22:26;99701.52;;;15.98;99.14
41467;BME280;27205;53.690;19.948;2022-07-31T12:27:29;99705.39;;;16.04;98.95
41467;BME280;27205;53.690;19.948;2022-07-31T12:32:32;99703.88;;;16.03;98.25
41467;BME280;27205;53.690;19.948;2022-07-31T12:37:47;99703.79;;;15.99;98.63
41467;BME280;27205;53.690;19.948;2022-07-31T12:42:51;99704.48;;;15.93;98.55
41467;BME280;27205;53.690;19.948;2022-07-31T12:47:55;99707.18;;;15.82;98.09
41467;BME280;27205;53.690;19.948;2022-07-31T12:53:01;99703.50;;;15.84;97.67
41467;BME280;27205;53.690;19.948;2022-07-31T12:58:04;99707.67;;;15.91;96.96
41467;BME280;27205;53.690;19.948;2022-07-31T13:03:08;99708.95;;;15.98;97.18
41467;BME280;27205;53.690;19.948;2022-07-31T13:08:11;99712.61;;;16.13;96.94
41467;BME280;27205;53.690;19.948;2022-07-31T13:13:15;99712.02;;;16.14;96.14
41467;BME280;27205;53.690;19.948;2022-07-31T13:18:21;99707.98;;;16.07;96.25
41467;BME280;27205;53.690;19.948;2022-07-31T13:23:24;99708.28;;;16.11;96.37
41467;BME280;27205;53.690;19.948;2022-07-31T13:28:28;99708.59;;;16.11;95.87
41467;BME280;27205;53.690;19.948;2022-07-31T13:33:31;99708.92;;;16.11;96.08
41467;BME280;27205;53.690;19.948;2022-07-31T13:38:35;99703.45;;;16.09;95.74
41467;BME280;27205;53.690;19.948;2022-07-31T13:43:38;99697.02;;;16.12;95.85
41467;BME280;27205;53.690;19.948;2022-07-31T13:49:01;99693.88;;;16.22;95.65
41467;BME280;27205;53.690;19.948;2022-07-31T13:54:11;99693.66;;;16.23;95.70
41467;BME280;27205;53.690;19.948;2022-07-31T13:59:14;99694.61;;;16.24;95.58
41467;BME280;27205;53.690;19.948;2022-07-31T14:04:19;99693.21;;;16.22;95.43
41467;BME280;27205;53.690;19.948;2022-07-31T14:09:25;99691.86;;;16.10;95.70
41467;BME280;27205;53.690;19.948;2022-07-31T14:14:29;99684.70;;;16.08;95.78
41467;BME280;27205;53.690;19.948;2022-07-31T14:19:32;99690.63;;;16.05;96.22
41467;BME280;27205;53.690;19.948;2022-07-31T14:24:46;99693.26;;;15.94;96.19
41467;BME280;27205;53.690;19.948;2022-07-31T14:29:53;99701.06;;;15.88;96.47
41467;BME280;27205;53.690;19.948;2022-07-31T14:34:56;99693.36;;;15.82;96.67
41467;BME280;27205;53.690;19.948;2022-07-31T14:40:00;99702.67;;;15.89;96.40
41467;BME280;27205;53.690;19.948;2022-07-31T14:45:04;99700.64;;;15.80;96.12
41467;BME280;27205;53.690;19.948;2022-07-31T14:50:09;99708.35;;;15.81;95.93
41467;BME280;27205;53.690;19.948;2022-07-31T14:55:19;99708.38;;;15.78;95.69
41467;BME280;27205;53.690;19.948;2022-07-31T15:00:23;99710.48;;;15.81;95.93
41467;BME280;27205;53.690;19.948;2022-07-31T15:05:26;99712.71;;;15.81;95.83
41467;BME280;27205;53.690;19.948;2022-07-31T15:10:49;99705.12;;;15.82;95.66
41467;BME280;27205;53.690;19.948;2022-07-31T15:15:53;99706.47;;;15.86;95.95
41467;BME280;27205;53.690;19.948;2022-07-31T15:20:56;99706.90;;;15.93;95.97
41467;BME280;27205;53.690;19.948;2022-07-31T15:25:59;99710.93;;;16.07;95.86
41467;BME280;27205;53.690;19.948;2022-07-31T15:31:04;99712.77;;;16.19;95.54
41467;BME280;27205;53.690;19.948;2022-07-31T15:36:08;99710.52;;;16.28;95.43
41467;BME280;27205;53.690;19.948;2022-07-31T15:41:19;99709.34;;;16.30;95.59
41467;BME280;27205;53.690;19.948;2022-07-31T15:46:23;99708.58;;;16.30;95.52
41467;BME280;27205;53.690;19.948;2022-07-31T15:51:26;99707.31;;;16.29;95.77
41467;BME280;27205;53.690;19.948;2022-07-31T15:56:29;99711.73;;;16.27;95.75
41467;BME280;27205;53.690;19.948;2022-07-31T16:01:33;99718.30;;;16.25;95.78
41467;BME280;27205;53.690;19.948;2022-07-31T16:06:36;99719.65;;;16.22;95.88
41467;BME280;27205;53.690;19.948;2022-07-31T16:11:41;99712.98;;;16.21;95.68
41467;BME280;27205;53.690;19.948;2022-07-31T16:17:05;99701.83;;;16.18;95.82
41467;BME280;27205;53.690;19.948;2022-07-31T16:22:11;99704.14;;;16.10;95.60
41467;BME280;27205;53.690;19.948;2022-07-31T16:27:14;99707.66;;;16.01;95.77
41467;BME280;27205;53.690;19.948;2022-07-31T16:32:17;99704.92;;;15.95;96.06
41467;BME280;27205;53.690;19.948;2022-07-31T16:37:21;99706.70;;;15.90;96.28
41467;BME280;27205;53.690;19.948;2022-07-31T16:42:44;99706.11;;;15.87;96.26
41467;BME280;27205;53.690;19.948;2022-07-31T16:47:50;99701.87;;;15.85;96.25
41467;BME280;27205;53.690;19.948;2022-07-31T16:52:54;99697.58;;;15.84;96.49
41467;BME280;27205;53.690;19.948;2022-07-31T16:57:57;99693.22;;;15.90;96.56
41467;BME280;27205;53.690;19.948;2022-07-31T17:03:00;99695.37;;;15.97;96.63
41467;BME280;27205;53.690;19.948;2022-07-31T17:08:04;99694.52;;;16.07;96.56
41467;BME280;27205;53.690;19.948;2022-07-31T17:13:07;99693.54;;;16.19;96.28
41467;BME280;27205;53.690;19.948;2022-07-31T17:18:11;99695.91;;;16.29;96.03
41467;BME280;27205;53.690;19.948;2022-07-31T17:23:14;99689.86;;;16.36;95.71
41467;BME280;27205;53.690;19.948;2022-07-31T17:28:17;99691.60;;;16.36;95.39
41467;BME280;27205;53.690;19.948;2022-07-31T17:33:21;99689.98;;;16.28;95.34
41467;BME280;27205;53.690;19.948;2022-07-31T17:38:44;99689.45;;;16.18;95.11
41467;BME280;27205;53.690;19.948;2022-07-31T17:43:48;99689.91;;;16.07;94.85
41467;BME280;27205;53.690;19.948;2022-07-31T17:48:54;99698.83;;;16.03;94.54
41467;BME280;27205;53.690;19.948;2022-07-31T17:53:58;99702.27;;;16.03;94.63
41467;BME280;27205;53.690;19.948;2022-07-31T17:59:02;99701.43;;;16.07;94.48
41467;BME280;27205;53.690;19.948;2022-07-31T18:04:07;99702.88;;;16.11;94.51
41467;BME280;27205;53.690;19.948;2022-07-31T18:09:12;99702.34;;;16.14;94.34
41467;BME280;27205;53.690;19.948;2022-07-31T18:14:17;99707.34;;;16.18;94.43
41467;BME280;27205;53.690;19.948;2022-07-31T18:19:22;99709.02;;;16.24;94.10
41467;BME280;27205;53.690;19.948;2022-07-31T18:24:25;99712.72;;;16.36;93.78
41467;BME280;27205;53.690;19.948;2022-07-31T18:29:28;99716.29;;;16.69;93.18
41467;BME280;27205;53.690;19.948;2022-07-31T18:34:32;99712.07;;;16.86;92.86
41467;BME280;27205;53.690;19.948;2022-07-31T18:39:35;99716.14;;;16.63;92.58
41467;BME280;27205;53.690;19.948;2022-07-31T18:44:51;99713.25;;;16.40;92.75
41467;BME280;27205;53.690;19.948;2022-07-31T18:49:54;99709.68;;;16.21;92.80
41467;BME280;27205;53.690;19.948;2022-07-31T18:55:18;99705.73;;;16.06;92.78
41467;BME280;27205;53.690;19.948;2022-07-31T19:00:21;99704.10;;;15.96;92.92
41467;BME280;27205;53.690;19.948;2022-07-31T19:05:27;99705.50;;;15.89;92.86
41467;BME280;27205;53.690;19.948;2022-07-31T19:10:30;99709.25;;;15.86;92.86
41467;BME280;27205;53.690;19.948;2022-07-31T19:15:34;99708.29;;;15.85;92.95
41467;BME280;27205;53.690;19.948;2022-07-31T19:20:40;99697.79;;;15.84;92.88
41467;BME280;27205;53.690;19.948;2022-07-31T19:26:06;99704.30;;;15.83;92.96
41467;BME280;27205;53.690;19.948;2022-07-31T19:31:11;99702.74;;;15.82;93.34
41467;BME280;27205;53.690;19.948;2022-07-31T19:36:15;99704.55;;;15.83;93.29
41467;BME280;27205;53.690;19.948;2022-07-31T19:41:19;99698.80;;;15.85;93.37
41467;BME280;27205;53.690;19.948;2022-07-31T19:46:22;99697.08;;;15.86;93.23
41467;BME280;27205;53.690;19.948;2022-07-31T19:51:26;99703.90;;;15.84;93.20
41467;BME280;27205;53.690;19.948;2022-07-31T19:56:29;99693.57;;;15.81;93.23
41467;BME280;27205;53.690;19.948;2022-07-31T20:01:33;99688.70;;;15.74;93.36
41467;BME280;27205;53.690;19.948;2022-07-31T20:06:36;99685.59;;;15.67;93.19
41467;BME280;27205;53.690;19.948;2022-07-31T20:11:41;99677.34;;;15.60;93.09
41467;BME280;27205;53.690;19.948;2022-07-31T20:16:44;99677.11;;;15.51;93.06
41467;BME280;27205;53.690;19.948;2022-07-31T20:21:47;99679.06;;;15.40;93.13
41467;BME280;27205;53.690;19.948;2022-07-31T20:26:51;99670.61;;;15.31;93.39
41467;BME280;27205;53.690;19.948;2022-07-31T20:31:54;99672.17;;;15.24;93.52
41467;BME280;27205;53.690;19.948;2022-07-31T20:36:58;99669.20;;;15.17;93.65
41467;BME280;27205;53.690;19.948;2022-07-31T20:42:01;99663.45;;;15.11;93.53
41467;BME280;27205;53.690;19.948;2022-07-31T20:47:05;99657.73;;;15.04;93.51
41467;BME280;27205;53.690;19.948;2022-07-31T20:52:10;99656.77;;;14.98;93.61
41467;BME280;27205;53.690;19.948;2022-07-31T20:57:14;99652.80;;;14.93;93.45
41467;BME280;27205;53.690;19.948;2022-07-31T21:02:18;99656.13;;;14.88;93.62
41467;BME280;27205;53.690;19.948;2022-07-31T21:07:21;99645.99;;;14.82;93.68
41467;BME280;27205;53.690;19.948;2022-07-31T21:12:24;99642.77;;;14.76;93.91
41467;BME280;27205;53.690;19.948;2022-07-31T21:17:31;99636.27;;;14.68;94.12
41467;BME280;27205;53.690;19.948;2022-07-31T21:22:34;99633.36;;;14.59;94.30
41467;BME280;27205;53.690;19.948;2022-07-31T21:27:39;99625.44;;;14.49;94.29
41467;BME280;27205;53.690;19.948;2022-07-31T21:32:43;99621.52;;;14.39;94.50
41467;BME280;27205;53.690;19.948;2022-07-31T21:37:46;99619.25;;;14.31;94.46
41467;BME280;27205;53.690;19.948;2022-07-31T21:42:57;99617.42;;;14.22;94.69
41467;BME280;27205;53.690;19.948;2022-07-31T21:48:08;99618.66;;;14.16;94.98
41467;BME280;27205;53.690;19.948;2022-07-31T21:53:12;99615.31;;;14.10;95.24
41467;BME280;27205;53.690;19.948;2022-07-31T21:58:16;99611.77;;;14.04;95.62
41467;BME280;27205;53.690;19.948;2022-07-31T22:03:20;99608.43;;;13.98;95.99
41467;BME280;27205;53.690;19.948;2022-07-31T22:08:23;99607.27;;;13.92;95.82
41467;BME280;27205;53.690;19.948;2022-07-31T22:13:26;99605.64;;;13.85;96.12
41467;BME280;27205;53.690;19.948;2022-07-31T22:18:32;99596.02;;;13.78;96.17
41467;BME280;27205;53.690;19.948;2022-07-31T22:23:36;99598.31;;;13.71;96.40
41467;BME280;27205;53.690;19.948;2022-07-31T22:28:40;99599.70;;;13.63;96.35
41467;BME280;27205;53.690;19.948;2022-07-31T22:33:44;99602.39;;;13.57;96.45
41467;BME280;27205;53.690;19.948;2022-07-31T22:38:47;99601.30;;;13.50;96.54
41467;BME280;27205;53.690;19.948;2022-07-31T22:43:52;99606.67;;;13.47;96.87
41467;BME280;27205;53.690;19.948;2022-07-31T22:49:17;99603.99;;;13.41;97.56
41467;BME280;27205;53.690;19.948;2022-07-31T22:54:21;99600.92;;;13.41;98.24
41467;BME280;27205;53.690;19.948;2022-07-31T22:59:24;99601.70;;;13.36;98.38
41467;BME280;27205;53.690;19.948;2022-07-31T23:04:27;99598.98;;;13.32;98.70
41467;BME280;27205;53.690;19.948;2022-07-31T23:09:31;99596.33;;;13.28;98.46
41467;BME280;27205;53.690;19.948;2022-07-31T23:14:35;99594.32;;;13.25;98.82
41467;BME280;27205;53.690;19.948;2022-07-31T23:19:38;99589.92;;;13.23;98.61
41467;BME280;27205;53.690;19.948;2022-07-31T23:24:41;99590.71;;;13.22;99.77
41467;BME280;27205;53.690;19.948;2022-07-31T23:29:45;99593.81;;;13.25;99.82
41467;BME280;27205;53.690;19.948;2022-07-31T23:34:48;99594.98;;;13.28;99.98
41467;BME280;27205;53.690;19.948;2022-07-31T23:39:52;99592.00;;;13.36;100.00
41467;BME280;27205;53.690;19.948;2022-07-31T23:44:55;99588.45;;;13.41;100.00
41467;BME280;27205;53.690;19.948;2022-07-31T23:49:59;99585.54;;;13.45;100.00
41467;BME280;27205;53.690;19.948;2022-07-31T23:55:02;99578.29;;;13.41;100.00
